Latest Coastal Weather Observations for Barrow Island

IDW60701

Issued at 5:25 am WST Friday 18 April 2014 (issued every 10 minutes, with the page automatically refreshed every 10 minutes)

About coastal observations | Map of coastal stations | Coastal observations for WA | Marine services | Other Formats
Station Details ID: 005094 Name: BARROW ISLAND AIRPORT Lat: -20.88 Lon: 115.41 Height: 6.4 m
Data from the previous 72 hours. | See also: Recent months at Barrow Island
Date/Time
WST
Temp

°C
Wind Pressure Rain
since 9am
mm
Weather Cloud Vis
km
Sea
Height
m
Swell
Dir
 
Speed
knots
Gust
knots
hPa Trend Height
m
Period
s
Dir
18/05:00am 26.4 SSE 8 10 1013.9 - 0.0 - - - - - - -
18/04:30am 26.8 SSE 9 11 1013.7 - 0.0 - - - - - - -
18/04:00am 26.8 SSE 8 9 1013.7 - 0.0 - - - - - - -
18/03:30am 26.6 SSE 6 7 1013.8 - 0.0 - - - - - - -
18/03:00am 26.7 SSE 7 9 1013.7 - 0.0 - - - - - - -
18/02:30am 26.9 S 8 9 1013.8 - 0.0 - - - - - - -
18/02:00am 26.8 SSE 7 8 1014.0 - 0.0 - - - - - - -
18/01:30am 27.0 SSE 8 8 1014.2 - 0.0 - - - - - - -
18/01:00am 27.0 S 8 9 1014.7 - 0.0 - - - - - - -
18/12:30am 27.3 S 9 10 1015.0 - 0.0 - - - - - - -
18/12:00am 27.5 S 9 10 1015.3 - 0.0 - - - - - - -
 
Date/Time
WST
Temp

°C
Wind Pressure Rain
since 9am
mm
Weather Cloud Vis
km
Sea
Height
m
Swell
Dir
 
Speed
knots
Gust
knots
hPa Trend Height
m
Period
s
Dir
17/11:30pm 27.4 S 10 11 1015.3 - 0.0 - - - - - - -
17/11:00pm 25.6 SW 5 7 1015.4 - 0.0 - - - - - - -
17/10:30pm 25.3 SSW 4 8 1015.4 - 0.0 - - - - - - -
17/10:00pm 23.5 N 6 6 1014.9 - 0.0 - - - - - - -
17/09:30pm 23.4 NW 3 4 1015.0 - 0.0 - - - - - - -
17/09:00pm 24.9 WSW 4 5 1014.7 - 0.0 - - - - - - -
17/08:30pm 25.0 W 5 6 1014.7 - 0.0 - - - - - - -
17/08:00pm 25.7 W 6 7 1014.5 - 0.0 - - - - - - -
17/07:30pm 26.1 WSW 5 6 1014.1 - 0.0 - - - - - - -
17/07:00pm 26.3 WSW 6 7 1013.8 - 0.0 - - - - - - -
17/06:30pm 27.4 N 5 5 1013.5 - 0.0 - - - - - - -
17/06:00pm 28.6 NNE 7 8 1013.1 - 0.0 - - - - - - -
17/05:30pm 30.2 NNE 10 13 1012.7 - 0.0 - - - - - - -
17/05:00pm 30.2 NE 8 10 1012.6 - 0.0 - - - - - - -
17/04:30pm 30.7 NE 9 10 1012.6 - 0.0 - - - - - - -
17/04:00pm 31.0 ENE 8 10 1012.5 - 0.0 - - - - - - -
17/03:30pm 31.3 ENE 8 9 1012.5 - 0.0 - - - - - - -
17/03:00pm 31.5 ENE 9 11 1012.5 - 0.0 - - - - - - -
17/02:30pm 31.4 E 5 7 1012.5 - 0.0 - - - - - - -
17/02:00pm 31.4 E 4 5 1012.8 - 0.0 - - - - - - -
17/01:30pm 30.7 S 5 6 1013.1 - 0.0 - - - - - - -
17/01:00pm 30.3 SSE 6 7 1013.3 - 0.0 - - - - - - -
17/12:30pm 30.9 SSE 8 9 1013.7 - 0.0 - - - - - - -
17/12:00pm 31.2 SE 10 11 1014.2 - 0.0 - - - - - - -
17/11:30am 30.7 SE 10 13 1014.6 - 0.0 - - - - - - -
17/11:00am 30.2 SE 11 13 1014.9 - 0.0 - - - - - - -
17/10:30am 29.4 SE 11 13 1015.2 - 0.0 - - - - - - -
17/10:00am 29.0 SE 11 13 1015.4 - 0.0 - - - - - - -
17/09:30am 28.3 ESE 11 12 1015.5 - 0.0 - - - - - - -
17/09:00am 27.9 ESE 11 12 1015.4 - 0.0 - - - - - - -
17/08:30am 27.5 ESE 11 13 1015.2 - 0.0 - - - - - - -
17/08:00am 27.8 SE 10 11 1014.9 - 0.0 - - - - - - -
17/07:30am 27.3 SSE 8 9 1014.7 - 0.0 - - - - - - -
17/07:00am 26.4 SSE 7 8 1014.4 - 0.0 - - - - - - -
17/06:30am 25.7 SSE 7 9 1014.0 - 0.0 - - - - - - -
17/06:00am 25.7 S 6 8 1013.9 - 0.0 - - - - - - -
17/05:30am 26.0 S 7 9 1013.8 - 0.0 - - - - - - -
17/05:00am 26.0 S 8 9 1013.7 - 0.0 - - - - - - -
17/04:30am 22.9 SW 6 8 1013.7 - 0.0 - - - - - - -
17/04:00am 22.1 SW 6 7 1013.8 - 0.0 - - - - - - -
17/03:30am 22.3 SW 5 5 1013.7 - 0.0 - - - - - - -
17/03:00am 21.9 WSW 5 5 1013.8 - 0.0 - - - - - - -
17/02:30am 22.5 WSW 5 5 1014.1 - 0.0 - - - - - - -
17/02:00am 22.1 WSW 5 6 1014.3 - 0.0 - - - - - - -
17/01:30am 22.5 WNW 3 4 1014.1 - 0.0 - - - - - - -
17/01:00am 23.3 W 3 4 1014.3 - 0.0 - - - - - - -
17/12:30am 23.2 CALM 0 0 1014.5 - 0.0 - - - - - - -
17/12:00am 23.6 CALM 0 0 1014.4 - 0.0 - - - - - - -
 
Date/Time
WST
Temp

°C
Wind Pressure Rain
since 9am
mm
Weather Cloud Vis
km
Sea
Height
m
Swell
Dir
 
Speed
knots
Gust
knots
hPa Trend Height
m
Period
s
Dir
16/11:30pm 24.1 SW 3 4 1014.6 - 0.0 - - - - - - -
16/11:00pm 24.6 WSW 4 5 1014.6 - 0.0 - - - - - - -
16/10:30pm 24.2 W 4 5 1014.7 - 0.0 - - - - - - -
16/10:00pm 24.3 WNW 5 5 1014.7 - 0.0 - - - - - - -
16/09:30pm 25.2 NW 6 7 1014.6 - 0.0 - - - - - - -
16/09:00pm 24.7 NNW 6 7 1014.2 - 0.0 - - - - - - -
16/08:30pm 24.7 NNW 8 8 1014.0 - 0.0 - - - - - - -
16/08:00pm 24.8 NW 6 7 1013.8 - 0.0 - - - - - - -
16/07:30pm 25.2 N 8 9 1013.4 - 0.0 - - - - - - -
16/07:00pm 26.2 N 6 6 1013.1 - 0.0 - - - - - - -
16/06:30pm 27.3 N 7 8 1012.8 - 0.0 - - - - - - -
16/06:00pm 28.3 N 10 13 1012.6 - 0.0 - - - - - - -
16/05:30pm 29.7 NNE 11 13 1012.3 - 0.0 - - - - - - -
16/05:00pm 30.3 NNE 13 16 1012.0 - 0.0 - - - - - - -
16/04:30pm 30.6 NNE 15 18 1011.9 - 0.0 - - - - - - -
16/04:00pm 30.5 NE 16 19 1011.8 - 0.0 - - - - - - -
16/03:30pm 30.3 NE 16 18 1011.9 - 0.0 - - - - - - -
16/03:00pm 30.7 NE 17 20 1012.0 - 0.0 - - - - - - -
16/02:30pm 31.6 NE 15 18 1012.0 - 0.0 - - - - - - -
16/02:00pm 31.3 NE 15 18 1012.1 - 0.0 - - - - - - -
16/01:30pm 30.9 NE 15 17 1012.4 - 0.0 - - - - - - -
16/01:00pm 31.2 NE 11 13 1013.1 - 0.0 - - - - - - -
16/12:30pm 30.5 ENE 8 9 1013.6 - 0.0 - - - - - - -
16/12:00pm 30.2 ENE 8 10 1014.1 - 0.0 - - - - - - -
16/11:30am 30.3 E 9 11 1014.6 - 0.0 - - - - - - -
16/11:00am 30.3 E 11 13 1014.9 - 0.0 - - - - - - -
16/10:30am 30.3 E 12 13 1015.2 - 0.0 - - - - - - -
16/10:00am 29.9 SE 11 13 1015.4 - 0.0 - - - - - - -
16/09:30am 29.0 SE 13 15 1015.5 - 0.0 - - - - - - -
16/09:00am 28.4 SE 12 13 1015.4 - 0.0 - - - - - - -
16/08:30am 27.9 SE 10 12 1015.4 - 0.0 - - - - - - -
16/08:00am 27.4 SE 11 12 1015.3 - 0.0 - - - - - - -
16/07:30am 26.8 SE 11 13 1015.2 - 0.0 - - - - - - -
16/07:00am 26.2 SE 10 11 1014.9 - 0.0 - - - - - - -
16/06:30am 26.0 ESE 10 11 1014.7 - 0.0 - - - - - - -
16/06:00am 26.3 SSE 8 10 1014.5 - 0.0 - - - - - - -
16/05:30am 26.2 SSE 8 9 1014.4 - 0.0 - - - - - - -
16/05:00am 26.2 SSE 8 9 1014.2 - 0.0 - - - - - - -
16/04:30am 25.8 S 6 7 1014.0 - 0.0 - - - - - - -
16/04:00am 23.5 SSW 4 5 1014.1 - 0.0 - - - - - - -
16/03:30am 23.0 WSW 4 5 1014.0 - 0.0 - - - - - - -
16/03:00am 23.0 SW 3 4 1014.1 - 0.0 - - - - - - -
16/02:30am 22.4 WSW 3 4 1014.4 - 0.0 - - - - - - -
16/02:00am 22.9 WSW 5 5 1014.5 - 0.0 - - - - - - -
16/01:30am 23.1 WSW 5 5 1014.7 - 0.0 - - - - - - -
16/01:00am 24.2 SW 5 6 1014.9 - 0.0 - - - - - - -
16/12:30am 23.7 SW 5 6 1015.2 - 0.0 - - - - - - -
16/12:00am 23.8 NW 3 4 1014.9 - 0.0 - - - - - - -
 
Date/Time
WST
Temp

°C
Wind Pressure Rain
since 9am
mm
Weather Cloud Vis
km
Sea
Height
m
Swell
Dir
 
Speed
knots
Gust
knots
hPa Trend Height
m
Period
s
Dir
15/11:30pm 23.8 NNW 4 5 1015.1 - 0.0 - - - - - - -
15/11:00pm 23.5 NW 5 5 1015.3 - 0.0 - - - - - - -
15/10:30pm 24.1 W 6 7 1015.5 - 0.0 - - - - - - -
15/10:00pm 24.7 W 6 7 1015.7 - 0.0 - - - - - - -
15/09:30pm 24.6 WNW 6 6 1015.7 - 0.0 - - - - - - -
15/09:00pm 25.2 W 5 6 1015.6 - 0.0 - - - - - - -
15/08:30pm 25.4 W 5 6 1015.4 - 0.0 - - - - - - -
15/08:00pm 25.2 NW 5 6 1015.1 - 0.0 - - - - - - -
15/07:30pm 26.2 N 6 7 1014.6 - 0.0 - - - - - - -
15/07:00pm 26.5 N 7 8 1014.2 - 0.0 - - - - - - -
15/06:30pm 27.9 N 8 11 1013.8 - 0.0 - - - - - - -
15/06:00pm 28.9 N 8 11 1013.7 - 0.0 - - - - - - -
15/05:30pm 29.5 NNE 12 15 1013.2 - 0.0 - - - - - - -
15/05:00pm 30.3 NNE 14 16 1013.0 - 0.0 - - - - - - -
15/04:30pm 30.4 NNE 15 18 1012.9 - 0.0 - - - - - - -
15/04:00pm 30.3 NNE 15 18 1012.9 - 0.0 - - - - - - -
15/03:30pm 30.9 NNE 16 19 1013.0 - 0.0 - - - - - - -
15/03:00pm 30.5 NE 15 18 1013.1 - 0.0 - - - - - - -
15/02:30pm 30.4 NE 15 19 1013.1 - 0.0 - - - - - - -
15/02:00pm 30.4 NE 16 19 1013.4 - 0.0 - - - - - - -
15/01:30pm 30.4 NE 16 19 1013.5 - 0.0 - - - - - - -
15/01:00pm 30.6 NE 15 17 1013.8 - 0.0 - - - - - - -
15/12:30pm 30.5 NE 15 17 1014.4 - 0.0 - - - - - - -
15/12:00pm 30.4 NE 13 15 1014.8 - 0.0 - - - - - - -
15/11:30am 30.2 ENE 15 18 1015.2 - 0.0 - - - - - - -
15/11:00am 30.4 E 11 13 1015.5 - 0.0 - - - - - - -
15/10:30am 30.3 E 11 13 1015.8 - 0.0 - - - - - - -
15/10:00am 30.0 E 15 18 1016.0 - 0.0 - - - - - - -
15/09:30am 30.0 ENE 14 18 1015.8 - 0.0 - - - - - - -
15/09:00am 30.0 ENE 16 19 1015.6 - 0.0 - - - - - - -
15/08:30am 29.4 E 15 17 1015.4 - 0.0 - - - - - - -
15/08:00am 28.4 ESE 13 15 1015.3 - 0.0 - - - - - - -
15/07:30am 27.9 SE 12 14 1015.2 - 0.0 - - - - - - -
15/07:00am 26.8 SE 13 15 1014.9 - 0.0 - - - - - - -
15/06:30am 26.3 SE 12 14 1014.6 - 0.0 - - - - - - -
15/06:00am 26.2 SE 12 13 1014.5 - 0.0 - - - - - - -
15/05:30am 25.9 SE 10 12 1014.4 - 0.0 - - - - - - -

Other Formats:

Comma delimited format used in spreadsheet applications
http://www.bom.gov.au/fwo/IDW60701/IDW60701.95304.axf

JavaScript Object Notation format (JSON) in row-major order
http://www.bom.gov.au/fwo/IDW60701/IDW60701.95304.json